arxmliv
arxmliv build tool
 
KWARC group
LaTeXML
About
   
 

Detailed info

Back to Homepage

List of missing_macros

No. Date Filename num_warningnum_errornum_xmargok_xmargnum_xmathok_xmathMissing macros
151001 2013-03-01 13:49:27 /0205/cs.0205009 530000[\citename, \shortcite]; 1 missing file[fullname.sty].
151002 2013-03-01 13:49:24 /0205/cs.0205010 540000[{lemma}, {theorem}, {proof}]; 1 missing file[ltexpprt.sty].
151003 2013-03-01 13:49:13 /0205/cs.0205008 130000[{theorem}, {corollary}]; 1 missing file[ltexpprt.sty].
151004 2013-03-01 13:49:01 /0205/cond-mat.0205657 020000[\PACS]; 1 missing file[size11.clo.sty].
151005 2013-03-01 13:48:19 /0205/cond-mat.0205665 110000[\rotate].
151006 2013-03-01 13:48:16 /0205/cond-mat.0205646 1140000[Align, {subequations}]; 1 missing file[amsmath2000.sty].
151007 2013-03-01 13:48:12 /0205/cond-mat.0205647 020000[\harvarditem, \harvardand].
151008 2013-03-01 13:48:00 /0205/cond-mat.0205649 140000[\thechapter, \@currentID, \titlemark, \chaptermark]; 1 missing file[sfibook-gell-mann.cls].
151009 2013-03-01 13:47:39 /0205/cond-mat.0205637 210000[\psfrag].
151010 2013-03-01 13:47:37 /0205/cond-mat.0205629 2410000[\psfrag].
151011 2013-03-01 13:47:08 /0205/cond-mat.0205627 590000[\euro, \pacs, \inst, \rec, \institute, \Date].
151012 2013-03-01 13:46:54 /0205/cond-mat.0205626 110000[{comment}].
151013 2013-03-01 13:45:33 /0205/cond-mat.0205598 3710000[\epsfig].
151014 2013-03-01 13:45:23 /0205/cond-mat.0205597 120000[\PACS]; 1 missing file[size11.clo.sty].
151015 2013-03-01 13:45:03 /0205/cond-mat.0205573 1590000[\sodauthor, \rauthor, \address, \sodtitle, \dates, \lat, \PACS, \ch, \rtitle].
151016 2013-03-01 13:44:51 /0205/cond-mat.0205572 030000[\extrasenglish, \dateenglish, \captionsenglish].
151017 2013-03-01 13:43:33 /0205/cond-mat.0205553 030000[\extrasenglish, \dateenglish, \captionsenglish].
151018 2013-03-01 13:41:25 /0205/cond-mat.0205504 1860000[\kword, \abst, \inst, \recdate, \mib, \citen].
151019 2013-03-01 13:40:56 /0205/cond-mat.0205499 96100000[\affil, {article}, \authoraddr, \acknowledgments, \righthead, \reference, {references}, \lefthead]; 2 missing files[agupp.sty, update.tex].
151020 2013-03-01 13:40:35 /0205/cond-mat.0205488 8730000[\Qlb, \Qcb, \FRAME].
151021 2013-03-01 13:40:23 /0205/cond-mat.0205503 3260000[\epsfbox, \citet, \epsfxsize]; 2 missing files[subeqna.sty, jpsjbs.sty].
151022 2013-03-01 13:38:35 /0205/cond-mat.0205477 970000[\twofigures, \@affiliation, \onefigure, \etal].
151023 2013-03-01 13:37:13 /0205/cond-mat.0205471 570000[\@affiliation].
151024 2013-03-01 13:36:51 /0205/cond-mat.0205454 010000[\listfiles].
151025 2013-03-01 13:36:40 /0205/cond-mat.0205460 920000[\toctitle]; 1 missing file[physproc.sty].
151026 2013-03-01 13:35:42 /0205/cond-mat.0205425 31210000[\dottedline, \ellipse, \dashline, \blacken].
151027 2013-03-01 13:35:41 /0205/cond-mat.0205452 030000[\cents, \FRAME, \yen].
151028 2013-03-01 13:34:42 /0205/cond-mat.0205437 1160000[\address, \epsffileline, {references}, \submitted, {tindent}]; 1 missing file[pss.cls].
151029 2013-03-01 13:32:40 /0205/cond-mat.0205405 020000[{rotate}].
151030 2013-03-01 13:32:31 /0205/cond-mat.0205391 750000[\kword, \abst, \inst, \recdate, \mib].
151031 2013-03-01 13:31:25 /0205/cond-mat.0205353 64320000[\setplotarea, \!ybot, \setlinear, \!xleft, \setplotsymbol, \arrow, \!picbox, \!xright, \plot, \!ytop, \setcoordinatesystem, \setdashes, \setsolid, \plotsymbolspacing].
151032 2013-03-01 13:28:37 /0205/cond-mat.0205327 1250000[\refer, \pacs, \email, {ack}, \pagerange]; 1 missing file[ActaStyle.cls].
151033 2013-03-01 13:27:50 /0205/cond-mat.0205316 9100000[\Real, \sodtitle, \dates, \lat, \rauthor, \sodauthor, \address, \PACS, \Imag, \rtitle].
151034 2013-03-01 13:27:41 /0205/cond-mat.0205308 4460000[\psfig]; 1 missing file[psfig].
151035 2013-03-01 13:27:10 /0205/cond-mat.0205309 010000[\unit].
151036 2013-03-01 13:26:13 /0205/cond-mat.0205284 1140000[\pacs, \email, {ack}, \pagerange]; 1 missing file[ActaStyle.cls].
151037 2013-03-01 13:25:56 /0205/cond-mat.0205281 2630000[\citen].
151038 2013-03-01 13:25:47 /0205/astro-ph.0205513 1730000[\epsfbox, \epsfxsize]; 1 missing file[psfig.tex].
151039 2013-03-01 13:25:34 /0205/cond-mat.0205273 1120000[\psfrag, \2].
151040 2013-03-01 13:25:18 /0205/cond-mat.0205276 4120000[\epsfbox, \epsfxsize]; 2 missing files[subeqna.sty, jpsjbs.sty].
151041 2013-03-01 13:24:04 /0205/cond-mat.0205251 230000[\pacs, \email, \pagerange]; 1 missing file[ActaStyle.cls].
151042 2013-03-01 13:23:49 /0205/cond-mat.0205260 10510000[\affil, \for, \tocauthor, \vchcaption, \thechapter, \@currentID, {vchfigure}, \authorafterheading].
151043 2013-03-01 13:23:37 /0205/cond-mat.0205243 3110000[\epsffileline].
151044 2013-03-01 13:23:28 /0205/cond-mat.0205246 150000[\kword, \abst, \inst, \recdate, \mib].
151045 2013-03-01 13:22:49 /0205/cond-mat.0205221 040000[\extrasenglish, \vref, \dateenglish, \captionsenglish].
151046 2013-03-01 13:22:47 /0205/cond-mat.0205225 3170000[\citeauthoryear, \postcode, \Sup, \pfnm, \recto, \verso, \pcnty, \pcity, \address, \psnm, \porgdiv, \acknote, {subabstract}, \porgname, \pstreet, \pinit]; 2 missing files[gen-bioinformatics.cls, hlight.sty].
151047 2013-03-01 13:22:06 /0205/cond-mat.0205201 320000[\psfig]; 1 missing file[psfig].
151048 2013-03-01 13:20:20 /0205/cond-mat.0205155 810000[\psrotatefirst].
151049 2013-03-01 13:19:49 /0205/cond-mat.0205144 070000[\email, \twoimages, \@affiliation, \onefigure, \etal].
151050 2013-03-01 13:19:37 /0205/cond-mat.0205139 8530000[\includegraphics, \scalebox, \psfrag].
151051 2013-03-01 13:19:37 /0205/cond-mat.0205149 530000[\catchline, \pub]; 1 missing file[ws.sty].
151052 2013-03-01 13:19:19 /0205/cond-mat.0205135 210000[\theappendix].
151053 2013-03-01 13:18:36 /0205/cond-mat.0205130 1360000[\@affiliation, \onefigure, \etal].
151054 2013-03-01 13:18:33 /0205/cond-mat.0205116 2640000[\pacs, \email, {ack}, \pagerange]; 1 missing file[ActaStyle.cls].
151055 2013-03-01 13:18:24 /0205/cond-mat.0205114 460000[\Journal, \epsfbox, \abstracts, \PRL, \epsfxsize]; 1 missing file[ws.sty].
151056 2013-03-01 13:17:48 /0205/cond-mat.0205104 350000[\@affiliation, \onefigure].
151057 2013-03-01 13:17:18 /0205/cond-mat.0205099 340000[\surname, \institute, {opening}, {article}].
151058 2013-03-01 13:17:15 /0205/cond-mat.0205101 030000[\extrasenglish, \dateenglish, \captionsenglish].
151059 2013-03-01 13:16:39 /0205/cond-mat.0205089 060000[\@affiliation, \etal].
151060 2013-03-01 13:15:35 /0205/cond-mat.0205053 420000[\psfig]; 1 missing file[psfig].
151061 2013-03-01 13:15:10 /0205/cond-mat.0205050 030000[\@affiliation, \onefigure].
151062 2013-03-01 13:15:06 /0205/cond-mat.0205049 030000[\psfig]; 1 missing file[psfig].
151063 2013-03-01 13:14:56 /0205/cond-mat.0205030 070000[\twofigures, \email, \@affiliation, \onefigure, \etal].
151064 2013-03-01 13:14:50 /0205/cond-mat.0205016 1340000[\epsfbox, \epsfxsize]; 2 missing files[subeqna.sty, jpsjbs.sty].
151065 2013-03-01 13:14:45 /0205/cond-mat.0205039 060000[\email, \@affiliation, \etal]; 1 missing file[rcs.sty].
151066 2013-03-01 13:14:23 /0205/astro-ph.0205553 39510000[\citeauthoryear].
151067 2013-03-01 13:14:16 /0205/astro-ph.0205551 1810000[\toctitle].
151068 2013-03-01 13:13:28 /0205/astro-ph.0205541 120000[\affil]; 1 missing file[srt_style.sty].
151069 2013-03-01 13:13:23 /0205/astro-ph.0205545 030000[\extrasenglish, \dateenglish, \captionsenglish].
151070 2013-03-01 13:12:54 /0205/astro-ph.0205537 520000[\backslashbox]; 1 missing file[slashbox.sty].
151071 2013-03-01 13:12:40 /0205/astro-ph.0205517 4260000[\epsfbox, \epsfverbosetrue, \epsffile, \epsfxsize]; 1 missing file[danonecolfloat.sty].
151072 2013-03-01 13:12:38 /0205/astro-ph.0205539 150000[\inst, \titlerunning, \institute, \authorrunning, {acknowledgements}]; 1 missing file[agnspec.cls].
151073 2013-03-01 13:12:25 /0205/astro-ph.0205507 610000[\theappendix].
151074 2013-03-01 13:12:21 /0205/astro-ph.0205525 0110000[\affil, \apj, \apss, \apjl, \nat, \aap, \mnras, \email, \FigureFile, \authorcite]; 1 missing file[pasjskel.sty].
151075 2013-03-01 13:12:10 /0205/astro-ph.0205501 110000[\theappendix].
151076 2013-03-01 13:11:56 /0205/astro-ph.0205515 030000[\affil]; 1 missing file[dunk2001_asp.sty].
151077 2013-03-01 13:11:55 /0205/astro-ph.0205492 1610000[\theappendix].
151078 2013-03-01 13:11:53 /0205/astro-ph.0205519 390000[\affil, \apjs, \apj, \reference, {references}, \plotfiddle, \aap, \micron]; 1 missing file[newpasp.sty].
151079 2013-03-01 13:11:49 /0205/astro-ph.0205504 230000[\affiliation, \3, {acknowledgements}].
151080 2013-03-01 13:11:31 /0205/astro-ph.0205450 1070000[\theappendix].
151081 2013-03-01 13:11:30 /0205/astro-ph.0205509 010000[\psnodraftbox].
151082 2013-03-01 13:11:18 /0205/astro-ph.0205497 6180000[\tenpoint, \apj, \pasj, \aaps, \nat, \aap, \email, \Accepted, \araa, \KeyWords, \aj, \Published, \altaffilmark, \Received, \mnras, \FigureFile, \altaffiltext, \SetRunningHead]; 1 missing file[pasj00.cls].
151083 2013-03-01 13:11:16 /0205/astro-ph.0205496 2100000[\affil, \apj, \aj, \aap, \acknowledgments, \reference, \pasp, {references}, \plottwo]; 1 missing file[newpasp.sty].
151084 2013-03-01 13:10:57 /0205/astro-ph.0205486 11100000[\draft, \lesssim, \altaffilmark, \Received, \FigureFile, \Accepted, \gtrsim, \altaffiltext, \SetRunningHead, \KeyWords]; 1 missing file[pasj00.cls].
151085 2013-03-01 13:10:51 /0205/astro-ph.0205485 050000[\affil, \reference, \plotone, {references}]; 1 missing file[newpasp.sty].
151086 2013-03-01 13:10:45 /0205/astro-ph.0205468 6150000[\citeauthoryear, \apj, \citeNP, \apjl, \aap, \theappendix, \apjs, Align, \mnras, \physrep, \shortciteN, \prd, \citeN, \araa]; 1 missing file[astrobib.sty].
151087 2013-03-01 13:10:41 /0205/astro-ph.0205474 120000[\psboxto]; 1 missing file[psbox].
151088 2013-03-01 13:10:25 /0205/astro-ph.0205477 2110000[\affil, \apj, \aaps, \tableline, \aap, \la, \reference, {references}, \acknowledgements, \plottwo]; 1 missing file[newpasp.sty].
151089 2013-03-01 13:10:11 /0205/astro-ph.0205449 020000[\psfig]; 1 missing file[{psfig}].
151090 2013-03-01 13:10:02 /0205/astro-ph.0205463 030000[\pcite, \scite]; 1 missing file[mncite.sty].
151091 2013-03-01 13:09:58 /0205/astro-ph.0205466 040000[\affil, \reference, {references}]; 1 missing file[newpasp.sty].
151092 2013-03-01 13:09:56 /0205/astro-ph.0205467 040000[\epsfbox, \submitted, \epsfxsize]; 1 missing file[apjfonts.sty].
151093 2013-03-01 13:09:46 /0205/astro-ph.0205398 11720000[\psfig]; 1 missing file[psfig].
151094 2013-03-01 13:09:40 /0205/astro-ph.0205453 120000[\psfig]; 1 missing file[psfig.tex].
151095 2013-03-01 13:09:37 /0205/astro-ph.0205455 110000[\rotate].
151096 2013-03-01 13:09:36 /0205/astro-ph.0205458 0100000[\rhead, \headnote, \correspondence, \Month, \institute, \lhead, \Volume, \Pagespan, \acknowledgements, \Year].
151097 2013-03-01 13:09:35 /0205/astro-ph.0205452 3110000[\affil, \apj, \aaps, \aap, \apjs, \reference, \arcsec, {references}, \farcs, \plottwo]; 1 missing file[newpasp.sty].
151098 2013-03-01 13:09:35 /0205/astro-ph.0205456 030000[\affil, \acknowledgments]; 1 missing file[srt_style.sty].
151099 2013-03-01 13:09:25 /0205/astro-ph.0205440 2120000[\affil, \aaps, \plotfiddle, \aap, \sun, \mnras, \pasp, \reference, \arcsec, {references}, \plottwo]; 1 missing file[newpasp.sty].
151100 2013-03-01 13:09:22 /0205/astro-ph.0205446 020000[\citeN]; 1 missing file[astrobib.sty].
151101 2013-03-01 13:09:18 /0205/astro-ph.0205447 620000[\institute, {acknowledgements}]; 1 missing file[he_symp.cls].
151102 2013-03-01 13:09:05 /0205/astro-ph.0205434 620000[\psfig]; 1 missing file[psfig].
151103 2013-03-01 13:08:53 /0205/astro-ph.0205432 280000[\affil, \apj, \reference, {references}, \acknowledgements, \plotfiddle, \la]; 1 missing file[newpasp.sty].
151104 2013-03-01 13:08:26 /0205/astro-ph.0205425 310000[\theappendix].
151105 2013-03-01 13:08:18 /0205/astro-ph.0205426 110000[\toctitle].
151106 2013-03-01 13:08:00 /0205/astro-ph.0205413 6160000[\apj, \timeform, \aap, \Accepted, \pasp, \araa, \KeyWords, \draft, \aj, \altaffilmark, \Received, \includegraphics, \mnras, \apjs, \altaffiltext, \SetRunningHead]; 1 missing file[pasj00.cls].
151107 2013-03-01 13:07:53 /0205/astro-ph.0205414 410000[\submitted].
151108 2013-03-01 13:07:38 /0205/astro-ph.0205401 1110000[\theappendix].
151109 2013-03-01 13:07:18 /0205/astro-ph.0205406 3610000[\toctitle].
151110 2013-03-01 13:07:09 /0205/astro-ph.0205405 050000[\evenpagefooter, \oddpagefooter, \institute, {opening}]; 1 missing file[BSAXwork.sty].
151111 2013-03-01 13:06:55 /0205/astro-ph.0205394 710000[\theappendix].
151112 2013-03-01 13:06:49 /0205/astro-ph.0205395 1270000[\catchline, \psfig, \tbl, \keywords]; 1 missing file[ws.sty].
151113 2013-03-01 13:06:04 /0205/astro-ph.0205382 460000[\AuthorIndex, \BookTitle, \makeauthorindex, \AuthorContents, \CopyRight]; 1 missing file[observe.sty].
151114 2013-03-01 13:05:21 /0205/astro-ph.0205369 370000[\affil, \figurewidth, \reference, {references}, {article}, \authoraddr, \acknowledgments]; 1 missing file[aguplus.cls].
151115 2013-03-01 13:05:15 /0205/astro-ph.0205350 259110000[\contcaption, \captiondelim]; 1 missing file[ccaption.sty].
151116 2013-03-01 13:04:56 /0205/astro-ph.0205374 370000[{\myfigure}, \submitted].
151117 2013-03-01 13:04:30 /0205/astro-ph.0205363 0110000[\affil, \apj, \aj, \apss, \pasj, \aap, \mnras, \email, \FigureFile, \pasp]; 1 missing file[pasjskel.sty].
151118 2013-03-01 13:03:28 /0205/astro-ph.0205342 410000[\theappendix].
151119 2013-03-01 13:03:05 /0205/astro-ph.0205329 0100000[\affil, \apj, \aaps, \tableline, \plotfiddle, \acknowledgments, \plotone, \reference, {references}]; 1 missing file[newpasp.sty].
151120 2013-03-01 13:03:03 /0205/astro-ph.0205346 240000[\copyrightyear, \SetInternalRegister, \layoutstyle, \classification].
151121 2013-03-01 13:03:02 /0205/astro-ph.0205336 920000[\citemane, \citaname].
151122 2013-03-01 13:02:40 /0205/astro-ph.0205313 41710000[\theappendix].
151123 2013-03-01 13:02:40 /0205/astro-ph.0205333 0350000[\epsfclipon, \submitted, \epsffile, \epsfysize, \epsfxsize]; 1 missing file[apjfonts.sty].
151124 2013-03-01 13:02:34 /0205/astro-ph.0205318 1250000[{keywords}, \psfig]; 1 missing file[basi.sty].
151125 2013-03-01 13:02:21 /0205/astro-ph.0205320 7340000[\mytitle, \mylabel, \myabstract, \myauthor, \mydate, \be, \myadress, \ee, \rf]; 1 missing file[aat.sty].
151126 2013-03-01 13:01:44 /0205/astro-ph.0205315 1160000[\resumen, \@captype, \shortauthor, \the\@captype, \acknowledgments, \dateenglish, \altaffilmark, \extrasenglish, \shorttitle, \altaffiltext, \fulladdresses, \captionsenglish].
151127 2013-03-01 13:01:19 /0205/astro-ph.0205286 710000[\toctitle].
151128 2013-03-01 13:00:41 /0205/astro-ph.0205303 370000[\ion, \inst, \titlerunning, \institute, \farcs, \authorrunning, {acknowledgements}]; 1 missing file[agnspec.cls].
151129 2013-03-01 13:00:17 /0205/astro-ph.0205289 3810000[\nofiles].
151130 2013-03-01 13:00:04 /0205/astro-ph.0205291 510000[\theappendix].
151131 2013-03-01 12:59:07 /0205/astro-ph.0205269 4150000[\includegraphics, \affiliationc, \addressb, \address, \email, \affiliationb, \affiliation, \addressc]; 1 missing file[ICEAA.sty].
151132 2013-03-01 12:58:30 /0205/astro-ph.0205262 010000[\layoutstyle].
151133 2013-03-01 12:58:17 /0205/astro-ph.0205265 030000[{keywords}, \psfig]; 1 missing file[basi.sty].
151134 2013-03-01 12:58:11 /0205/astro-ph.0205240 220000[\epsfbox, \epsfxsize].
151135 2013-03-01 12:58:07 /0205/astro-ph.0205249 190000[\surname, \institute, \runningtitle, {opening}, {article}, \tabcapfont, \keywords, \newdisplay, \runningauthor]; 1 missing file[kluwer_mod.cls].
151136 2013-03-01 12:58:02 /0205/astro-ph.0205254 240000[{SCfigure*}]; 1 missing file[sidecap.sty].
151137 2013-03-01 12:57:22 /0205/astro-ph.0205239 010000[\toctitle].
151138 2013-03-01 12:57:05 /0205/astro-ph.0205228 510000[\theappendix].
151139 2013-03-01 12:55:52 /0205/astro-ph.0205234 0190000[\indexauthor, \ReceivedDate, \shortauthor, \dateenglish, \altaffilmark, \extrasenglish, \SetYear, \listofauthors, \adjustfinalcols, \shorttitle, \altaffiltext, \AcceptedDate, \fulladdresses, \captionsenglish]; 1 missing file[rmaacite.sty].
151140 2013-03-01 12:54:25 /0205/astro-ph.0205206 410000[\mathinner].
151141 2013-03-01 12:53:01 /0205/astro-ph.0205197 1420000[\psbox]; 1 missing file[epsbox.sty].
151142 2013-03-01 12:52:08 /0205/astro-ph.0205203 3510000[\theappendix].
151143 2013-03-01 12:50:48 /0205/astro-ph.0205188 010000[\theappendix].
151144 2013-03-01 12:49:53 /0205/astro-ph.0205166 320000[\toctitle, \D].
151145 2013-03-01 12:49:52 /0205/astro-ph.0205193 210000[\toctitle].
151146 2013-03-01 12:48:58 /0205/astro-ph.0205181 0140000[\affil, \indexauthor, \resumen, \shortauthor, \dateenglish, \extrasenglish, \listofauthors, \adjustfinalcols, \shorttitle, \acknowledgements, \fulladdresses, \captionsenglish].
151147 2013-03-01 12:48:54 /0205/astro-ph.0205182 080000[\affil, \mnras, \apj, \aj, \reference, \aaps, {references}]; 1 missing file[newpasp.sty].
151148 2013-03-01 12:48:46 /0205/astro-ph.0205164 010000[\affiliation].
151149 2013-03-01 12:48:31 /0205/astro-ph.0205168 0100000[\affil, \apj, \reference, {references}, \aap, \acknowledgments, \plottwo]; 1 missing file[newpasp.sty].
151150 2013-03-01 12:48:03 /0205/astro-ph.0205155 610000[\theappendix].
151151 2013-03-01 12:46:41 /0205/astro-ph.0205145 0120000[\indexauthor, \boldabstract, \suppressfulladdresses, \dateenglish, \altaffilmark, \extrasenglish, \SetYear, \listofauthors, \SetConfTitle, \addkeyword, \altaffiltext, \captionsenglish].
151152 2013-03-01 12:46:05 /0205/astro-ph.0205151 260000[\affil, \reference, {references}, \acknowledgments]; 1 missing file[dunk2001_asp.sty].
151153 2013-03-01 12:46:04 /0205/astro-ph.0205132 6310000[\scite]; 1 missing file[mncite.sty].
151154 2013-03-01 12:45:43 /0205/astro-ph.0205140 230000[\toctitle].
151155 2013-03-01 12:45:40 /0205/astro-ph.0205122 1220000[\inst, \institute]; 1 missing file[he_symp.cls].
151156 2013-03-01 12:45:39 /0205/astro-ph.0205139 2120000[\affil, \apj, \indexauthor, \shortauthor, \dateenglish, \extrasenglish, \listofauthors, \shorttitle, \acknowledgements, \fulladdresses, \captionsenglish].
151157 2013-03-01 12:45:03 /0205/astro-ph.0205124 010000[\rxj].
151158 2013-03-01 12:44:45 /0205/astro-ph.0205114 1410000[\citename].
151159 2013-03-01 12:44:24 /0205/astro-ph.0205112 540000[\WFigure, \email, \Figure, \heads].
151160 2013-03-01 12:43:57 /0205/astro-ph.0205119 3120000[\affil, \apj, \aj, \tableline, \aap, \acknowledgments, \apjs, \mnras, \plotone, \reference, {references}]; 1 missing file[paspconf.sty].
151161 2013-03-01 12:43:43 /0205/astro-ph.0205106 430000[\rotcaption, {sideways}].
151162 2013-03-01 12:42:26 /0205/astro-ph.0205083 2810000[\theappendix].
151163 2013-03-01 12:42:04 /0205/astro-ph.0205094 0160000[\affil, \indexauthor, \resumen, \shortauthor, \dateenglish, \altaffilmark, \extrasenglish, \listofauthors, \adjustfinalcols, \shorttitle, \ion, \altaffiltext, \fulladdresses, \captionsenglish].
151164 2013-03-01 12:42:04 /0205/astro-ph.0205095 2150000[\affil, \indexauthor, \resumen, \shortauthor, \dateenglish, \altaffilmark, \extrasenglish, \listofauthors, \adjustfinalcols, \shorttitle, \ion, \acknowledgements, \fulladdresses, \captionsenglish].
151165 2013-03-01 12:42:03 /0205/astro-ph.0205097 030000[\extrasenglish, \dateenglish, \captionsenglish].
151166 2013-03-01 12:41:56 /0205/astro-ph.0205099 040000[\topmargin, \textheight, \oddsidemargin, \textwidth].
151167 2013-03-01 12:41:06 /0205/astro-ph.0205074 610000[\theappendix].
151168 2013-03-01 12:40:39 /0205/astro-ph.0205073 5100000[\affil, \resumen, \shortauthor, \dateenglish, \extrasenglish, \figcaption, \shorttitle, \fulladdresses, \captionsenglish].
151169 2013-03-01 12:40:28 /0205/astro-ph.0205075 150000[\affil, \reference, {references}, {acknowledgements}]; 1 missing file[newpasp.sty].
151170 2013-03-01 12:40:11 /0205/astro-ph.0205061 030000[{keywords}, \psfig]; 1 missing file[basi.sty].
151171 2013-03-01 12:40:09 /0205/astro-ph.0205062 030000[{keywords}, \psfig]; 1 missing file[basi.sty].
151172 2013-03-01 12:40:09 /0205/astro-ph.0205065 110000[\theappendix].
151173 2013-03-01 12:40:00 /0205/astro-ph.0205041 10620000[\journalinfo]; 1 missing file[apjfonts.sty].
151174 2013-03-01 12:38:38 /0205/astro-ph.0205047 210000[\toctitle].
151175 2013-03-01 12:38:28 /0205/astro-ph.0205049 130000[\affil, \keywords]; 1 missing file[esapub.cls].
151176 2013-03-01 12:38:02 /0205/astro-ph.0205021 4410000[\lesssim, \RescaleTitleLengths, \ReceivedDate, \tablecols, \sun, \SetYear, \SetFirstPage, \pasp, \bottomrule, \resumen, \midrule, \shortauthor, \addlinespace, \dateenglish, \listofauthors, \SetVolume, \addkeyword, \fulladdresses, \apj, \ssr, \aap, \tabno
151177 2013-03-01 12:37:59 /0205/astro-ph.0205024 1020000[\theappendix, \psfrag].
151178 2013-03-01 12:37:44 /0205/astro-ph.0205039 1140000[\affil, \mnras, \plotone, \acknowledgements, \ga, \plottwo]; 1 missing file[mrs2001.sty].
151179 2013-03-01 12:37:41 /0205/astro-ph.0205020 410000[\theappendix].
151180 2013-03-01 12:37:18 /0205/astro-ph.0205002 810000[\toctitle].
151181 2013-03-01 12:36:53 /0205/astro-ph.0205014 3380000[\psfull, \psfig]; 1 missing file[psfig].
151182 2013-03-01 12:36:50 /0205/astro-ph.0205016 65200000[\apj, \apjl, \Accepted, \email, \MO, \KeyWords, \draft, \ltsim, \aj, \altaffilmark, \Received, \apjs, \mnras, \FigureFile, \boldsymbol, \altaffiltext, \SetRunningHead]; 1 missing file[pasj00.cls].
151183 2013-03-01 12:36:43 /0205/astro-ph.0205013 5530000[\affil, \apj, \aj, \citep, \Received, \email, \Accepted, \FigureFile, \citet, \araa, \SetRunningHead, \KeyWords]; 1 missing file[pasj00.cls].
151184 2013-03-01 12:36:37 /0205/astro-ph.0205015 110000[\presenter]; 1 missing file[icrc29.cls].
151185 2013-03-01 12:36:20 /0205/astro-ph.0205003 070000[\affil, \apj, \reference, \plotone, {references}, \araa]; 1 missing file[newpasp.sty].
151186 2013-03-01 12:36:10 /0204/quant-ph.0204161 510000[\bbold].
151187 2013-03-01 12:36:10 /0204/quant-ph.0204166 420000[\psfrag, \psfragscanoff].
151188 2013-03-01 12:35:54 /0204/quant-ph.0204169 9110000[Align, \email, \@affiliation, \xymatrix, \ar, \etal]; 1 missing file[xy.sty].
151189 2013-03-01 12:35:30 /0204/quant-ph.0204160 830000[\varsubsetneq, \bbold, \frak].
151190 2013-03-01 12:35:26 /0204/quant-ph.0204158 510000[\QATOP].
151191 2013-03-01 12:34:51 /0204/quant-ph.0204149 960000[\@thanks, \@authoraddress, \@preprint, \@date, \@title, \@abstract].
151192 2013-03-01 12:34:43 /0204/quant-ph.0204147 310000[\listfiles].
151193 2013-03-01 12:34:36 /0204/quant-ph.0204150 2160000[\@thanks, \@authoraddress, \@preprint, \@date, \@title, \@abstract].
151194 2013-03-01 12:32:22 /0204/quant-ph.0204116 030000[\extrasenglish, \dateenglish, \captionsenglish].
151195 2013-03-01 12:32:06 /0204/quant-ph.0204100 030000[\extrasenglish, \dateenglish, \captionsenglish].
151196 2013-03-01 12:31:44 /0204/quant-ph.0204107 120000[\psfig]; 1 missing file[psfig].
151197 2013-03-01 12:31:00 /0204/quant-ph.0204067 22280000[\@affiliation].
151198 2013-03-01 12:29:47 /0204/quant-ph.0204073 150000[\authorinfo, \skiplinehalf, \acknowledgments, \keywords, \supit]; 1 missing file[spie.cls].
151199 2013-03-01 12:29:46 /0204/quant-ph.0204038 33080000[\psfrag, \psfragscanon, {psfrags}, \arc, \dashline, \blacken, \path].
151200 2013-03-01 12:28:06 /0204/quant-ph.0204050 3440000[\texture, \shade, \drawline, \blacken].
<<< >>>

[0] [200] [400] [600] [800] [1000] [1200] [1400] [1600] [1800] [2000] [2200] [2400] [2600] [2800] [3000] [3200] [3400] [3600] [3800] [4000] [4200] [4400] [4600] [4800] [5000] [5200] [5400] [5600] [5800] [6000] [6200] [6400] [6600] [6800] [7000] [7200] [7400] [7600] [7800] [8000] [8200] [8400] [8600] [8800] [9000] [9200] [9400] [9600] [9800] [10000] [10200] [10400] [10600] [10800] [11000] [11200] [11400] [11600] [11800] [12000] [12200] [12400] [12600] [12800] [13000] [13200] [13400] [13600] [13800] [14000] [14200] [14400] [14600] [14800] [15000] [15200] [15400] [15600] [15800] [16000] [16200] [16400] [16600] [16800] [17000] [17200] [17400] [17600] [17800] [18000] [18200] [18400] [18600] [18800] [19000] [19200] [19400] [19600] [19800] [20000] [20200] [20400] [20600] [20800] [21000] [21200] [21400] [21600] [21800] [22000] [22200] [22400] [22600] [22800] [23000] [23200] [23400] [23600] [23800] [24000] [24200] [24400] [24600] [24800] [25000] [25200] [25400] [25600] [25800] [26000] [26200] [26400] [26600] [26800] [27000] [27200] [27400] [27600] [27800] [28000] [28200] [28400] [28600] [28800] [29000] [29200] [29400] [29600] [29800] [30000] [30200] [30400] [30600] [30800] [31000] [31200] [31400] [31600] [31800] [32000] [32200] [32400] [32600] [32800] [33000] [33200] [33400] [33600] [33800] [34000] [34200] [34400] [34600] [34800] [35000] [35200] [35400] [35600] [35800] [36000] [36200] [36400] [36600] [36800] [37000] [37200] [37400] [37600] [37800] [38000] [38200] [38400] [38600] [38800] [39000] [39200] [39400] [39600] [39800] [40000] [40200] [40400] [40600] [40800] [41000] [41200] [41400] [41600] [41800] [42000] [42200] [42400] [42600] [42800] [43000] [43200] [43400] [43600] [43800] [44000] [44200] [44400] [44600] [44800] [45000] [45200] [45400] [45600] [45800] [46000] [46200] [46400] [46600] [46800] [47000] [47200] [47400] [47600] [47800] [48000] [48200] [48400] [48600] [48800] [49000] [49200] [49400] [49600] [49800] [50000] [50200] [50400] [50600] [50800] [51000] [51200] [51400] [51600] [51800] [52000] [52200] [52400] [52600] [52800] [53000] [53200] [53400] [53600] [53800] [54000] [54200] [54400] [54600] [54800] [55000] [55200] [55400] [55600] [55800] [56000] [56200] [56400] [56600] [56800] [57000] [57200] [57400] [57600] [57800] [58000] [58200] [58400] [58600] [58800] [59000] [59200] [59400] [59600] [59800] [60000] [60200] [60400] [60600] [60800] [61000] [61200] [61400] [61600] [61800] [62000] [62200] [62400] [62600] [62800] [63000] [63200] [63400] [63600] [63800] [64000] [64200] [64400] [64600] [64800] [65000] [65200] [65400] [65600] [65800] [66000] [66200] [66400] [66600] [66800] [67000] [67200] [67400] [67600] [67800] [68000] [68200] [68400] [68600] [68800] [69000] [69200] [69400] [69600] [69800] [70000] [70200] [70400] [70600] [70800] [71000] [71200] [71400] [71600] [71800] [72000] [72200] [72400] [72600] [72800] [73000] [73200] [73400] [73600] [73800] [74000] [74200] [74400] [74600] [74800] [75000] [75200] [75400] [75600] [75800] [76000] [76200] [76400] [76600] [76800] [77000] [77200] [77400] [77600] [77800] [78000] [78200] [78400] [78600] [78800] [79000] [79200] [79400] [79600] [79800] [80000] [80200] [80400] [80600] [80800] [81000] [81200] [81400] [81600] [81800] [82000] [82200] [82400] [82600] [82800] [83000] [83200] [83400] [83600] [83800] [84000] [84200] [84400] [84600] [84800] [85000] [85200] [85400] [85600] [85800] [86000] [86200] [86400] [86600] [86800] [87000] [87200] [87400] [87600] [87800] [88000] [88200] [88400] [88600] [88800] [89000] [89200] [89400] [89600] [89800] [90000] [90200] [90400] [90600] [90800] [91000] [91200] [91400] [91600] [91800] [92000] [92200] [92400] [92600] [92800] [93000] [93200] [93400] [93600] [93800] [94000] [94200] [94400] [94600] [94800] [95000] [95200] [95400] [95600] [95800] [96000] [96200] [96400] [96600] [96800] [97000] [97200] [97400] [97600] [97800] [98000] [98200] [98400] [98600] [98800] [99000] [99200] [99400] [99600] [99800] [100000] [100200] [100400] [100600] [100800] [101000] [101200] [101400] [101600] [101800] [102000] [102200] [102400] [102600] [102800] [103000] [103200] [103400] [103600] [103800] [104000] [104200] [104400] [104600] [104800] [105000] [105200] [105400] [105600] [105800] [106000] [106200] [106400] [106600] [106800] [107000] [107200] [107400] [107600] [107800] [108000] [108200] [108400] [108600] [108800] [109000] [109200] [109400] [109600] [109800] [110000] [110200] [110400] [110600] [110800] [111000] [111200] [111400] [111600] [111800] [112000] [112200] [112400] [112600] [112800] [113000] [113200] [113400] [113600] [113800] [114000] [114200] [114400] [114600] [114800] [115000] [115200] [115400] [115600] [115800] [116000] [116200] [116400] [116600] [116800] [117000] [117200] [117400] [117600] [117800] [118000] [118200] [118400] [118600] [118800] [119000] [119200] [119400] [119600] [119800] [120000] [120200] [120400] [120600] [120800] [121000] [121200] [121400] [121600] [121800] [122000] [122200] [122400] [122600] [122800] [123000] [123200] [123400] [123600] [123800] [124000] [124200] [124400] [124600] [124800] [125000] [125200] [125400] [125600] [125800] [126000] [126200] [126400] [126600] [126800] [127000] [127200] [127400] [127600] [127800] [128000] [128200] [128400] [128600] [128800] [129000] [129200] [129400] [129600] [129800] [130000] [130200] [130400] [130600] [130800] [131000] [131200] [131400] [131600] [131800] [132000] [132200] [132400] [132600] [132800] [133000] [133200] [133400] [133600] [133800] [134000] [134200] [134400] [134600] [134800] [135000] [135200] [135400] [135600] [135800] [136000] [136200] [136400] [136600] [136800] [137000] [137200] [137400] [137600] [137800] [138000] [138200] [138400] [138600] [138800] [139000] [139200] [139400] [139600] [139800] [140000] [140200] [140400] [140600] [140800] [141000] [141200] [141400] [141600] [141800] [142000] [142200] [142400] [142600] [142800] [143000] [143200] [143400] [143600] [143800] [144000] [144200] [144400] [144600] [144800] [145000] [145200] [145400] [145600] [145800] [146000] [146200] [146400] [146600] [146800] [147000] [147200] [147400] [147600] [147800] [148000] [148200] [148400] [148600] [148800] [149000] [149200] [149400] [149600] [149800] [150000] [150200] [150400] [150600] [150800] [151000] [151200] [151400] [151600] [151800] [152000] [152200] [152400] [152600] [152800] [153000] [153200] [153400] [153600] [153800] [154000] [154200] [154400] [154600] [154800] [155000] [155200] [155400] [155600] [155800] [156000] [156200] [156400] [156600] [156800] [157000] [157200] [157400] [157600] [157800] [158000] [158200] [158400] [158600] [158800] [159000] [159200] [159400] [159600] [159800] [160000] [160200] [160400] [160600] [160800] [161000] [161200] [161400] [161600] [161800] [162000] [162200] [162400] [162600] [162800] [163000] [163200] [163400] [163600] [163800] [164000] [164200] [164400] [164600]
 
  The service has been written by
Heinrich Stamerjohanns